sensor_id;sensor_type;location;lat;lon;timestamp;pressure;altitude;pressure_sealevel;temperature;humidity
62508;BME280;48556;51.972;4.624;2022-11-02T18:47:23;101691.19;;;12.27;87.74
62508;BME280;48556;51.972;4.624;2022-11-02T18:49:49;101690.69;;;13.00;82.35
62508;BME280;48556;51.972;4.624;2022-11-02T18:52:15;101676.94;;;13.62;78.17
62508;BME280;48556;51.972;4.624;2022-11-02T18:54:42;101672.06;;;14.01;75.05
62508;BME280;48556;51.972;4.624;2022-11-02T18:57:07;101672.41;;;14.37;73.03
62508;BME280;48556;51.972;4.624;2022-11-02T18:59:33;101671.53;;;14.38;72.29
62508;BME280;48556;51.972;4.624;2022-11-02T19:02:00;101663.94;;;14.76;70.30
62508;BME280;48556;51.972;4.624;2022-11-02T19:04:29;101662.03;;;14.84;68.83
62508;BME280;48556;51.972;4.624;2022-11-02T19:06:54;101661.47;;;14.62;70.04
62508;BME280;48556;51.972;4.624;2022-11-02T19:09:38;101665.66;;;14.78;68.92
62508;BME280;48556;51.972;4.624;2022-11-02T19:12:10;101652.31;;;14.84;68.84
62508;BME280;48556;51.972;4.624;2022-11-02T19:14:40;101657.09;;;14.64;69.58
62508;BME280;48556;51.972;4.624;2022-11-02T19:17:07;101647.03;;;14.84;68.64
62508;BME280;48556;51.972;4.624;2022-11-02T19:19:34;101646.50;;;14.62;68.66
62508;BME280;48556;51.972;4.624;2022-11-02T19:22:00;101651.50;;;14.81;68.04
62508;BME280;48556;51.972;4.624;2022-11-02T19:24:26;101645.59;;;14.63;69.14
62508;BME280;48556;51.972;4.624;2022-11-02T19:26:52;101633.22;;;14.67;69.11
62508;BME280;48556;51.972;4.624;2022-11-02T19:29:18;101625.81;;;14.88;68.82
62508;BME280;48556;51.972;4.624;2022-11-02T19:31:44;101636.81;;;14.60;68.92
62508;BME280;48556;51.972;4.624;2022-11-02T19:34:10;101632.47;;;15.10;67.67
62508;BME280;48556;51.972;4.624;2022-11-02T19:36:36;101617.53;;;14.51;69.68
62508;BME280;48556;51.972;4.624;2022-11-02T19:39:02;101627.06;;;14.63;69.42
62508;BME280;48556;51.972;4.624;2022-11-02T19:41:29;101623.75;;;14.49;70.46
62508;BME280;48556;51.972;4.624;2022-11-02T19:43:56;101615.50;;;14.69;69.12
62508;BME280;48556;51.972;4.624;2022-11-02T19:46:23;101618.06;;;14.75;69.05
62508;BME280;48556;51.972;4.624;2022-11-02T19:48:49;101616.50;;;14.63;68.99
62508;BME280;48556;51.972;4.624;2022-11-02T19:51:18;101608.53;;;14.65;69.54
62508;BME280;48556;51.972;4.624;2022-11-02T19:53:48;101602.34;;;14.66;69.36
62508;BME280;48556;51.972;4.624;2022-11-02T19:56:14;101596.06;;;14.72;68.73
62508;BME280;48556;51.972;4.624;2022-11-02T19:58:45;101601.75;;;14.45;69.14
62508;BME280;48556;51.972;4.624;2022-11-02T20:03:44;101589.19;;;14.60;69.60
62508;BME280;48556;51.972;4.624;2022-11-02T20:06:22;101591.44;;;14.83;68.47
62508;BME280;48556;51.972;4.624;2022-11-02T20:08:49;101588.75;;;14.86;68.19
62508;BME280;48556;51.972;4.624;2022-11-02T20:11:15;101576.63;;;14.74;68.74
62508;BME280;48556;51.972;4.624;2022-11-02T20:13:43;101579.13;;;14.82;68.30
62508;BME280;48556;51.972;4.624;2022-11-02T20:16:11;101585.16;;;14.92;67.36
62508;BME280;48556;51.972;4.624;2022-11-02T20:18:39;101581.13;;;14.67;67.88
62508;BME280;48556;51.972;4.624;2022-11-02T20:21:15;101579.56;;;14.56;68.69
62508;BME280;48556;51.972;4.624;2022-11-02T20:23:42;101572.44;;;14.58;69.32
62508;BME280;48556;51.972;4.624;2022-11-02T20:26:11;101574.13;;;14.65;68.63
62508;BME280;48556;51.972;4.624;2022-11-02T20:28:40;101576.84;;;14.59;69.32
62508;BME280;48556;51.972;4.624;2022-11-02T20:31:08;101563.41;;;14.73;68.73
62508;BME280;48556;51.972;4.624;2022-11-02T20:33:35;101563.84;;;14.98;67.30
62508;BME280;48556;51.972;4.624;2022-11-02T20:36:02;101573.84;;;14.80;67.78
62508;BME280;48556;51.972;4.624;2022-11-02T20:38:29;101567.44;;;14.94;67.71
62508;BME280;48556;51.972;4.624;2022-11-02T20:41:02;101574.72;;;14.82;67.15
62508;BME280;48556;51.972;4.624;2022-11-02T20:43:28;101590.66;;;14.79;68.16
62508;BME280;48556;51.972;4.624;2022-11-02T20:46:06;101572.94;;;14.81;67.50
62508;BME280;48556;51.972;4.624;2022-11-02T20:48:33;101576.75;;;14.68;68.22
62508;BME280;48556;51.972;4.624;2022-11-02T20:50:59;101573.84;;;14.80;67.96
62508;BME280;48556;51.972;4.624;2022-11-02T20:53:25;101557.06;;;14.81;67.58
62508;BME280;48556;51.972;4.624;2022-11-02T20:55:51;101543.75;;;14.86;67.56
62508;BME280;48556;51.972;4.624;2022-11-02T20:58:18;101559.56;;;14.91;67.57
62508;BME280;48556;51.972;4.624;2022-11-02T21:00:45;101548.69;;;14.55;68.52
62508;BME280;48556;51.972;4.624;2022-11-02T21:03:12;101545.75;;;14.73;68.25
62508;BME280;48556;51.972;4.624;2022-11-02T21:05:38;101545.09;;;15.09;67.31
62508;BME280;48556;51.972;4.624;2022-11-02T21:08:03;101531.94;;;15.04;66.88
62508;BME280;48556;51.972;4.624;2022-11-02T21:10:29;101525.97;;;14.93;67.12
62508;BME280;48556;51.972;4.624;2022-11-02T21:12:55;101540.34;;;15.25;66.36
62508;BME280;48556;51.972;4.624;2022-11-02T21:16:01;101534.19;;;14.77;67.80
62508;BME280;48556;51.972;4.624;2022-11-02T21:18:27;101536.47;;;14.99;67.74
62508;BME280;48556;51.972;4.624;2022-11-02T21:20:52;101526.22;;;14.79;68.45
62508;BME280;48556;51.972;4.624;2022-11-02T21:23:18;101529.19;;;15.10;67.25
62508;BME280;48556;51.972;4.624;2022-11-02T21:25:43;101523.22;;;14.99;67.50
62508;BME280;48556;51.972;4.624;2022-11-02T21:28:09;101529.41;;;14.98;67.22
62508;BME280;48556;51.972;4.624;2022-11-02T21:30:34;101519.03;;;14.87;68.11
62508;BME280;48556;51.972;4.624;2022-11-02T21:33:00;101516.16;;;14.98;67.52
62508;BME280;48556;51.972;4.624;2022-11-02T21:35:26;101519.28;;;14.73;68.55
62508;BME280;48556;51.972;4.624;2022-11-02T21:37:55;101517.28;;;14.84;68.03
62508;BME280;48556;51.972;4.624;2022-11-02T21:40:21;101524.34;;;14.85;68.32
62508;BME280;48556;51.972;4.624;2022-11-02T21:42:47;101509.06;;;15.01;67.33
62508;BME280;48556;51.972;4.624;2022-11-02T21:45:13;101515.63;;;15.26;66.67
62508;BME280;48556;51.972;4.624;2022-11-02T21:47:38;101509.25;;;14.91;67.58
62508;BME280;48556;51.972;4.624;2022-11-02T21:50:05;101498.75;;;14.84;68.25
62508;BME280;48556;51.972;4.624;2022-11-02T21:52:35;101503.53;;;15.12;67.09
62508;BME280;48556;51.972;4.624;2022-11-02T21:55:03;101495.00;;;14.98;67.59
62508;BME280;48556;51.972;4.624;2022-11-02T21:57:28;101496.97;;;14.86;68.29
62508;BME280;48556;51.972;4.624;2022-11-02T21:59:54;101489.63;;;15.01;68.48
62508;BME280;48556;51.972;4.624;2022-11-02T22:02:20;101484.91;;;15.17;67.61
62508;BME280;48556;51.972;4.624;2022-11-02T22:04:52;101482.06;;;14.82;69.04
62508;BME280;48556;51.972;4.624;2022-11-02T22:07:29;101479.66;;;15.15;68.02
62508;BME280;48556;51.972;4.624;2022-11-02T22:10:14;101472.78;;;15.05;68.49
62508;BME280;48556;51.972;4.624;2022-11-02T22:12:40;101469.94;;;15.14;68.19
62508;BME280;48556;51.972;4.624;2022-11-02T22:15:24;101464.09;;;14.97;69.10
62508;BME280;48556;51.972;4.624;2022-11-02T22:17:49;101461.09;;;15.15;67.87
62508;BME280;48556;51.972;4.624;2022-11-02T22:20:15;101459.78;;;14.93;68.62
62508;BME280;48556;51.972;4.624;2022-11-02T22:22:40;101447.91;;;14.68;69.86
62508;BME280;48556;51.972;4.624;2022-11-02T22:25:06;101452.31;;;14.69;69.46
62508;BME280;48556;51.972;4.624;2022-11-02T22:27:32;101455.75;;;14.73;69.28
62508;BME280;48556;51.972;4.624;2022-11-02T22:29:57;101444.63;;;14.52;70.09
62508;BME280;48556;51.972;4.624;2022-11-02T22:32:22;101441.69;;;14.71;69.79
62508;BME280;48556;51.972;4.624;2022-11-02T22:34:48;101430.19;;;14.70;69.36
62508;BME280;48556;51.972;4.624;2022-11-02T22:37:13;101425.56;;;14.83;69.38
62508;BME280;48556;51.972;4.624;2022-11-02T22:39:57;101421.81;;;14.48;69.43
62508;BME280;48556;51.972;4.624;2022-11-02T22:42:23;101418.22;;;14.49;69.98
62508;BME280;48556;51.972;4.624;2022-11-02T22:44:48;101417.56;;;14.86;68.25
62508;BME280;48556;51.972;4.624;2022-11-02T22:47:14;101414.19;;;14.78;68.35
62508;BME280;48556;51.972;4.624;2022-11-02T22:49:39;101409.53;;;14.90;68.15
62508;BME280;48556;51.972;4.624;2022-11-02T22:52:05;101407.38;;;15.09;67.04
62508;BME280;48556;51.972;4.624;2022-11-02T22:54:31;101403.81;;;14.67;68.31
62508;BME280;48556;51.972;4.624;2022-11-02T22:56:56;101399.59;;;14.56;69.24
62508;BME280;48556;51.972;4.624;2022-11-02T22:59:22;101403.94;;;14.60;68.92
62508;BME280;48556;51.972;4.624;2022-11-02T23:01:47;101393.41;;;14.57;68.62
62508;BME280;48556;51.972;4.624;2022-11-02T23:04:15;101393.31;;;14.63;68.93
62508;BME280;48556;51.972;4.624;2022-11-02T23:06:40;101389.84;;;14.58;69.20
62508;BME280;48556;51.972;4.624;2022-11-02T23:09:06;101388.06;;;14.60;68.72
62508;BME280;48556;51.972;4.624;2022-11-02T23:11:35;101386.38;;;14.56;68.51
62508;BME280;48556;51.972;4.624;2022-11-02T23:14:10;101391.31;;;14.74;68.25
62508;BME280;48556;51.972;4.624;2022-11-02T23:16:37;101378.66;;;14.89;67.86
62508;BME280;48556;51.972;4.624;2022-11-02T23:19:04;101379.19;;;14.64;68.77
62508;BME280;48556;51.972;4.624;2022-11-02T23:21:57;101368.06;;;14.89;68.20
62508;BME280;48556;51.972;4.624;2022-11-02T23:24:44;101369.72;;;14.50;69.26
62508;BME280;48556;51.972;4.624;2022-11-02T23:27:30;101369.22;;;14.77;68.89
62508;BME280;48556;51.972;4.624;2022-11-02T23:29:56;101371.03;;;14.73;69.21
62508;BME280;48556;51.972;4.624;2022-11-02T23:32:40;101366.91;;;14.60;69.32
62508;BME280;48556;51.972;4.624;2022-11-02T23:35:06;101366.84;;;15.05;67.85
62508;BME280;48556;51.972;4.624;2022-11-02T23:38:03;101367.63;;;15.10;67.62
62508;BME280;48556;51.972;4.624;2022-11-02T23:40:30;101360.38;;;15.18;67.70
62508;BME280;48556;51.972;4.624;2022-11-02T23:42:56;101356.66;;;14.86;68.50
62508;BME280;48556;51.972;4.624;2022-11-02T23:45:22;101353.56;;;14.66;69.36
62508;BME280;48556;51.972;4.624;2022-11-02T23:47:48;101348.84;;;15.19;68.04
62508;BME280;48556;51.972;4.624;2022-11-02T23:50:26;101334.03;;;14.72;69.86
62508;BME280;48556;51.972;4.624;2022-11-02T23:53:13;101335.44;;;14.88;69.38
62508;BME280;48556;51.972;4.624;2022-11-02T23:55:58;101332.69;;;14.93;69.67
62508;BME280;48556;51.972;4.624;2022-11-02T23:58:44;101331.75;;;14.95;69.25
